createdAt,value
2022-09-25T00:01:16.285Z,10.94
2022-09-25T00:03:43.589Z,10.93
2022-09-25T00:06:21.281Z,10.94
2022-09-25T00:08:49.791Z,10.94
2022-09-25T00:11:30.164Z,10.93
2022-09-25T00:14:00.520Z,10.94
2022-09-25T00:16:32.463Z,10.95
2022-09-25T00:19:00.793Z,10.90
2022-09-25T00:21:28.462Z,10.87
2022-09-25T00:23:55.718Z,10.85
2022-09-25T00:26:28.297Z,10.84
2022-09-25T00:28:56.519Z,10.83
2022-09-25T00:31:25.325Z,10.86
2022-09-25T00:33:54.375Z,10.88
2022-09-25T00:36:21.600Z,10.90
2022-09-25T00:38:49.269Z,10.90
2022-09-25T00:41:20.175Z,10.91
2022-09-25T00:43:52.083Z,10.91
2022-09-25T00:46:44.267Z,10.86
2022-09-25T00:49:20.001Z,10.85
2022-09-25T00:51:54.633Z,10.85
2022-09-25T00:54:38.842Z,10.84
2022-09-25T00:57:13.056Z,10.84
2022-09-25T00:59:50.848Z,10.84
2022-09-25T01:02:32.043Z,10.85
2022-09-25T01:05:05.532Z,10.86
2022-09-25T01:07:38.507Z,10.85
2022-09-25T01:10:08.298Z,10.86
2022-09-25T01:12:45.252Z,10.84
2022-09-25T01:15:17.189Z,10.83
2022-09-25T01:18:13.754Z,10.82
2022-09-25T01:20:58.476Z,10.81
2022-09-25T01:23:49.773Z,10.84
2022-09-25T01:27:06.618Z,10.82
2022-09-25T01:30:06.720Z,10.80
2022-09-25T01:32:48.519Z,10.80
2022-09-25T01:35:30.864Z,10.73
2022-09-25T01:38:26.903Z,10.77
2022-09-25T01:41:28.092Z,10.77
2022-09-25T01:44:16.895Z,10.77
2022-09-25T01:46:56.965Z,10.76
2022-09-25T01:49:33.965Z,10.79
2022-09-25T01:52:10.883Z,10.77
2022-09-25T01:54:51.881Z,10.77
2022-09-25T01:57:42.624Z,10.77
2022-09-25T02:00:15.508Z,10.77
2022-09-25T02:03:10.933Z,10.73
2022-09-25T02:05:53.170Z,10.75
2022-09-25T02:08:48.407Z,10.75
2022-09-25T02:11:15.845Z,10.73
2022-09-25T02:13:59.885Z,10.73
2022-09-25T02:16:41.624Z,10.70
2022-09-25T02:19:11.555Z,10.70
2022-09-25T02:22:02.496Z,10.68
2022-09-25T02:24:58.498Z,10.65
2022-09-25T02:27:28.536Z,10.67
2022-09-25T02:29:57.526Z,10.67
2022-09-25T02:32:32.388Z,10.64
2022-09-25T02:35:00.750Z,10.62
2022-09-25T02:37:30.888Z,10.62
2022-09-25T02:40:01.620Z,10.62
2022-09-25T02:43:14.683Z,10.61
2022-09-25T02:46:11.514Z,10.61
2022-09-25T02:49:10.460Z,10.59
2022-09-25T02:52:10.229Z,10.59
2022-09-25T02:54:53.179Z,10.57
2022-09-25T02:57:37.653Z,10.56
2022-09-25T03:00:08.142Z,10.58
2022-09-25T03:02:42.269Z,10.60
2022-09-25T03:05:15.665Z,10.59
2022-09-25T03:07:42.915Z,10.54
2022-09-25T03:10:10.349Z,10.57
2022-09-25T03:12:37.678Z,10.57
2022-09-25T03:15:06.376Z,10.56
2022-09-25T03:17:34.332Z,10.58
2022-09-25T03:20:01.698Z,10.57
2022-09-25T03:22:29.386Z,10.56
2022-09-25T03:24:59.052Z,10.53
2022-09-25T03:27:26.234Z,10.50
2022-09-25T03:29:53.342Z,10.51
2022-09-25T03:32:20.897Z,10.51
2022-09-25T03:34:48.291Z,10.51
2022-09-25T03:37:15.472Z,10.48
2022-09-25T03:39:42.645Z,10.47
2022-09-25T03:42:09.854Z,10.49
2022-09-25T03:44:36.996Z,10.49
2022-09-25T03:47:04.260Z,10.44
2022-09-25T03:49:31.458Z,10.46
2022-09-25T03:51:58.735Z,10.43
2022-09-25T03:54:28.957Z,10.44
2022-09-25T03:56:56.166Z,10.42
2022-09-25T03:59:23.381Z,10.44
2022-09-25T04:01:50.571Z,10.41
2022-09-25T04:04:17.773Z,10.44
2022-09-25T04:06:44.964Z,10.44
2022-09-25T04:09:12.418Z,10.43
2022-09-25T04:11:39.539Z,10.44
2022-09-25T04:14:06.996Z,10.42
2022-09-25T04:16:34.471Z,10.39
2022-09-25T04:19:01.895Z,10.36
2022-09-25T04:21:29.141Z,10.39
2022-09-25T04:23:58.053Z,10.35
2022-09-25T04:26:25.920Z,10.32
2022-09-25T04:28:53.081Z,10.31
2022-09-25T04:31:20.411Z,10.32
2022-09-25T04:33:47.719Z,10.34
2022-09-25T04:36:18.343Z,10.34
2022-09-25T04:38:46.285Z,10.36
2022-09-25T04:41:14.164Z,10.33
2022-09-25T04:43:41.348Z,10.34
2022-09-25T04:46:16.734Z,10.35
2022-09-25T04:48:47.650Z,10.35
2022-09-25T04:51:14.809Z,10.37
2022-09-25T04:53:42.306Z,10.38
2022-09-25T04:56:15.056Z,10.38
2022-09-25T04:58:50.225Z,10.38
2022-09-25T05:01:20.614Z,10.40
2022-09-25T05:03:50.448Z,10.40
2022-09-25T05:06:17.740Z,10.39
2022-09-25T05:08:47.307Z,10.38
2022-09-25T05:11:14.464Z,10.36
2022-09-25T05:13:41.685Z,10.34
2022-09-25T05:16:08.853Z,10.31
2022-09-25T05:18:36.129Z,10.27
2022-09-25T05:21:05.105Z,10.26
2022-09-25T05:23:32.481Z,10.24
2022-09-25T05:25:59.778Z,10.24
2022-09-25T05:28:26.947Z,10.20
2022-09-25T05:30:54.699Z,10.19
2022-09-25T05:33:21.883Z,10.18
2022-09-25T05:35:49.054Z,10.15
2022-09-25T05:38:16.271Z,10.12
2022-09-25T05:40:43.572Z,10.14
2022-09-25T05:43:10.844Z,10.15
2022-09-25T05:45:38.236Z,10.12
2022-09-25T05:48:08.277Z,10.11
2022-09-25T05:50:36.221Z,10.13
2022-09-25T05:53:05.732Z,10.13
2022-09-25T05:55:33.386Z,10.12
2022-09-25T05:58:04.898Z,10.14
2022-09-25T06:00:33.380Z,10.13
2022-09-25T06:03:03.830Z,10.14
2022-09-25T06:05:31.133Z,10.15
2022-09-25T06:07:58.578Z,10.15
2022-09-25T06:10:27.075Z,10.18
2022-09-25T06:13:02.886Z,10.16
2022-09-25T06:15:36.317Z,10.19
2022-09-25T06:18:09.532Z,10.23
2022-09-25T06:20:37.353Z,10.27
2022-09-25T06:23:04.677Z,10.29
2022-09-25T06:25:32.937Z,10.29
2022-09-25T06:28:01.893Z,10.33
2022-09-25T06:30:33.853Z,10.36
2022-09-25T06:33:03.357Z,10.39
2022-09-25T06:35:30.724Z,10.43
2022-09-25T06:38:00.316Z,10.46
2022-09-25T06:40:30.607Z,10.49
2022-09-25T06:43:00.685Z,10.53
2022-09-25T06:45:32.328Z,10.53
2022-09-25T06:48:14.450Z,10.54
2022-09-25T06:50:52.672Z,10.60
2022-09-25T06:53:22.643Z,10.62
2022-09-25T06:55:50.559Z,10.66
2022-09-25T06:58:23.688Z,10.74
2022-09-25T07:00:54.391Z,10.79
2022-09-25T07:03:22.264Z,10.83
2022-09-25T07:05:49.676Z,10.75
2022-09-25T07:08:19.154Z,10.84
2022-09-25T07:10:55.736Z,10.93
2022-09-25T07:13:27.426Z,11.01
2022-09-25T07:16:04.311Z,11.08
2022-09-25T07:18:33.066Z,11.13
2022-09-25T07:21:04.025Z,11.18
2022-09-25T07:23:31.514Z,11.23
2022-09-25T07:26:15.882Z,11.31
2022-09-25T07:28:44.278Z,11.34
2022-09-25T07:31:22.718Z,11.39
2022-09-25T07:33:50.262Z,11.44
2022-09-25T07:36:18.782Z,11.51
2022-09-25T07:38:50.965Z,11.51
2022-09-25T07:41:20.542Z,11.60
2022-09-25T07:43:47.899Z,11.57
2022-09-25T07:46:15.139Z,11.60
2022-09-25T07:48:42.349Z,11.61
2022-09-25T07:51:12.184Z,11.67
2022-09-25T07:53:39.879Z,11.75
2022-09-25T07:56:07.673Z,11.78
2022-09-25T07:58:35.407Z,11.85
2022-09-25T08:01:06.549Z,11.89
2022-09-25T08:03:34.936Z,11.92
2022-09-25T08:06:06.147Z,11.98
2022-09-25T08:08:36.533Z,12.02
2022-09-25T08:11:08.065Z,12.04
2022-09-25T08:13:36.433Z,12.03
2022-09-25T08:16:13.487Z,12.05
2022-09-25T08:18:43.178Z,12.08
2022-09-25T08:21:12.152Z,12.09
2022-09-25T08:23:41.903Z,12.09
2022-09-25T08:26:12.481Z,12.09
2022-09-25T08:28:39.641Z,12.15
2022-09-25T08:31:06.925Z,12.20
2022-09-25T08:33:35.156Z,12.21
2022-09-25T08:36:05.405Z,12.28
2022-09-25T08:38:33.406Z,12.33
2022-09-25T08:41:05.807Z,12.39
2022-09-25T08:43:40.650Z,12.49
2022-09-25T08:46:36.351Z,12.58
2022-09-25T08:49:04.405Z,12.64
2022-09-25T08:51:35.306Z,12.74
2022-09-25T08:54:05.382Z,12.79
2022-09-25T08:56:35.102Z,12.93
2022-09-25T08:59:24.804Z,13.03
2022-09-25T09:02:01.017Z,13.16
2022-09-25T09:04:45.204Z,13.29
2022-09-25T09:07:27.306Z,13.38
2022-09-25T09:10:27.178Z,13.42
2022-09-25T09:13:14.944Z,13.44
2022-09-25T09:15:55.987Z,13.49
2022-09-25T09:18:29.849Z,13.54
2022-09-25T09:21:09.820Z,13.58
2022-09-25T09:23:58.492Z,13.63
2022-09-25T09:26:57.912Z,13.58
2022-09-25T09:29:49.069Z,13.47
2022-09-25T09:32:51.726Z,13.44
2022-09-25T09:35:33.434Z,13.51
2022-09-25T09:38:25.808Z,13.63
2022-09-25T09:41:10.643Z,13.73
2022-09-25T09:43:46.538Z,13.85
2022-09-25T09:46:30.445Z,13.98
2022-09-25T09:49:29.534Z,14.13
2022-09-25T09:52:04.944Z,14.27
2022-09-25T09:54:58.101Z,14.37
2022-09-25T09:57:29.663Z,14.45
2022-09-25T10:00:13.483Z,14.58
2022-09-25T10:02:51.224Z,14.68
2022-09-25T10:05:42.043Z,14.76
2022-09-25T10:08:13.053Z,14.80
2022-09-25T10:11:01.065Z,14.84
2022-09-25T10:13:38.818Z,14.87
2022-09-25T10:16:16.847Z,14.77
2022-09-25T10:18:46.734Z,14.76
2022-09-25T10:21:21.253Z,14.75
2022-09-25T10:23:55.342Z,14.75
2022-09-25T10:26:34.243Z,14.81
2022-09-25T10:29:27.729Z,14.83
2022-09-25T10:32:04.333Z,14.91
2022-09-25T10:34:31.999Z,15.01
2022-09-25T10:37:15.045Z,15.10
2022-09-25T10:39:45.220Z,15.13
2022-09-25T10:43:03.928Z,15.13
2022-09-25T10:45:36.838Z,15.10
2022-09-25T10:48:29.640Z,15.08
2022-09-25T10:51:09.428Z,15.04
2022-09-25T10:53:37.576Z,15.01
2022-09-25T10:56:11.600Z,15.02
2022-09-25T10:58:55.428Z,15.00
2022-09-25T11:01:39.623Z,14.91
2022-09-25T11:04:31.746Z,14.81
2022-09-25T11:07:07.889Z,14.74
2022-09-25T11:09:44.878Z,14.64
2022-09-25T11:12:23.967Z,14.50
2022-09-25T11:15:05.482Z,14.44
2022-09-25T11:17:42.553Z,14.45
2022-09-25T11:20:29.635Z,14.44
2022-09-25T11:23:27.057Z,14.59
2022-09-25T11:26:12.844Z,14.71
2022-09-25T11:28:47.624Z,15.29
2022-09-25T11:31:42.545Z,15.83
2022-09-25T11:34:21.217Z,15.94
2022-09-25T11:36:55.279Z,15.81
2022-09-25T11:39:45.301Z,15.69
2022-09-25T11:43:09.044Z,15.54
2022-09-25T11:45:49.301Z,15.40
2022-09-25T11:49:08.578Z,15.28
2022-09-25T11:52:21.106Z,15.17
2022-09-25T11:55:43.490Z,15.06
2022-09-25T11:58:36.444Z,14.93
2022-09-25T12:01:25.009Z,14.86
2022-09-25T12:04:00.407Z,14.83
2022-09-25T12:06:44.790Z,14.80
2022-09-25T12:09:41.095Z,14.78
2022-09-25T12:12:38.613Z,14.74
2022-09-25T12:15:24.226Z,14.69
2022-09-25T12:18:34.348Z,14.65
2022-09-25T12:21:14.701Z,14.62
2022-09-25T12:24:17.112Z,14.65
2022-09-25T12:26:55.889Z,14.78
2022-09-25T12:29:42.304Z,15.01
2022-09-25T12:32:41.413Z,15.12
2022-09-25T12:35:37.172Z,15.13
2022-09-25T12:38:23.074Z,15.07
2022-09-25T12:41:10.359Z,15.01
2022-09-25T12:44:11.583Z,14.90
2022-09-25T12:46:58.676Z,14.89
2022-09-25T12:50:03.287Z,14.90
2022-09-25T12:52:41.618Z,14.90
2022-09-25T12:55:27.722Z,14.97
2022-09-25T12:58:37.591Z,14.97
2022-09-25T13:01:17.339Z,14.94
2022-09-25T13:04:05.016Z,14.95
2022-09-25T13:06:44.529Z,14.92
2022-09-25T13:09:48.854Z,14.90
2022-09-25T13:12:28.266Z,14.89
2022-09-25T13:15:04.162Z,14.90
2022-09-25T13:17:31.407Z,14.79
2022-09-25T13:20:26.390Z,14.74
2022-09-25T13:23:03.823Z,14.78
2022-09-25T13:25:42.432Z,14.90
2022-09-25T13:28:23.612Z,14.95
2022-09-25T13:31:11.566Z,14.93
2022-09-25T13:34:01.591Z,14.96
2022-09-25T13:36:33.443Z,14.98
2022-09-25T13:39:05.646Z,14.99
2022-09-25T13:41:33.256Z,14.96
2022-09-25T13:44:47.908Z,14.89
2022-09-25T13:47:26.925Z,14.83
2022-09-25T13:50:18.815Z,14.71
2022-09-25T13:52:45.954Z,14.67
2022-09-25T13:55:17.130Z,14.66
2022-09-25T13:57:59.303Z,14.66
2022-09-25T14:00:36.357Z,14.64
2022-09-25T14:03:05.507Z,14.62
2022-09-25T14:05:37.233Z,14.49
2022-09-25T14:08:15.203Z,14.29
2022-09-25T14:10:51.806Z,14.08
2022-09-25T14:13:22.482Z,13.85
2022-09-25T14:15:53.544Z,13.74
2022-09-25T14:18:40.950Z,13.71
2022-09-25T14:21:09.016Z,13.64
2022-09-25T14:23:50.939Z,13.60
2022-09-25T14:26:22.166Z,13.61
2022-09-25T14:28:52.155Z,13.56
2022-09-25T14:31:31.084Z,13.56
2022-09-25T14:34:16.478Z,13.55
2022-09-25T14:37:01.532Z,13.48
2022-09-25T14:39:54.357Z,13.49
2022-09-25T14:43:00.673Z,13.45
2022-09-25T14:45:45.838Z,13.45
2022-09-25T14:48:23.198Z,13.43
2022-09-25T14:50:58.997Z,13.43
2022-09-25T14:53:36.530Z,13.43
2022-09-25T14:56:05.603Z,13.46
2022-09-25T14:58:33.714Z,13.48
2022-09-25T15:01:32.006Z,13.48
2022-09-25T15:04:07.781Z,13.43
2022-09-25T15:06:40.145Z,13.40
2022-09-25T15:09:47.691Z,13.34
2022-09-25T15:12:25.162Z,13.31
2022-09-25T15:15:07.971Z,13.29
2022-09-25T15:17:48.112Z,13.26
2022-09-25T15:20:23.167Z,13.24
2022-09-25T15:23:02.991Z,13.24
2022-09-25T15:25:47.534Z,13.24
2022-09-25T15:28:19.441Z,13.26
2022-09-25T15:30:59.733Z,13.25
2022-09-25T15:33:34.279Z,13.25
2022-09-25T15:36:17.259Z,13.26
2022-09-25T15:38:53.054Z,13.30
2022-09-25T15:41:22.326Z,13.33
2022-09-25T15:43:50.913Z,13.38
2022-09-25T15:46:45.215Z,13.42
2022-09-25T15:49:38.651Z,13.44
2022-09-25T15:52:26.788Z,13.44
2022-09-25T15:54:54.257Z,13.41
2022-09-25T15:57:30.388Z,13.43
2022-09-25T16:00:04.688Z,13.42
2022-09-25T16:02:51.796Z,13.42
2022-09-25T16:05:28.735Z,13.41
2022-09-25T16:08:24.892Z,13.39
2022-09-25T16:11:25.327Z,13.38
2022-09-25T16:14:25.970Z,13.34
2022-09-25T16:16:56.936Z,13.30
2022-09-25T16:19:26.904Z,13.26
2022-09-25T16:21:54.981Z,13.29
2022-09-25T16:24:26.806Z,13.27
2022-09-25T16:27:05.111Z,13.24
2022-09-25T16:29:39.500Z,13.23
2022-09-25T16:32:18.838Z,13.20
2022-09-25T16:35:03.552Z,13.17
2022-09-25T16:37:36.345Z,13.11
2022-09-25T16:40:29.429Z,13.12
2022-09-25T16:42:58.131Z,13.10
2022-09-25T16:45:29.883Z,13.09
2022-09-25T16:47:57.803Z,13.03
2022-09-25T16:50:28.209Z,13.06
2022-09-25T16:52:55.493Z,13.04
2022-09-25T16:55:27.066Z,13.01
2022-09-25T16:57:56.227Z,13.00
2022-09-25T17:00:27.733Z,12.98
2022-09-25T17:02:55.621Z,12.96
2022-09-25T17:05:27.632Z,12.92
2022-09-25T17:07:58.477Z,12.89
2022-09-25T17:10:29.416Z,12.85
2022-09-25T17:13:00.941Z,12.84
2022-09-25T17:15:36.473Z,12.80
2022-09-25T17:18:21.500Z,12.80
2022-09-25T17:20:54.618Z,12.80
2022-09-25T17:23:24.559Z,12.81
2022-09-25T17:26:02.694Z,12.77
2022-09-25T17:28:30.672Z,12.76
2022-09-25T17:30:57.980Z,12.76
2022-09-25T17:33:25.248Z,12.75
2022-09-25T17:36:01.911Z,12.77
2022-09-25T17:38:29.269Z,12.77
2022-09-25T17:41:00.464Z,12.77
2022-09-25T17:43:30.461Z,12.76
2022-09-25T17:46:00.664Z,12.72
2022-09-25T17:48:31.442Z,12.69
2022-09-25T17:51:03.541Z,12.67
2022-09-25T17:53:33.775Z,12.65
2022-09-25T17:56:02.487Z,12.64
2022-09-25T17:58:32.993Z,12.60
2022-09-25T18:01:02.172Z,12.54
2022-09-25T18:03:29.680Z,12.56
2022-09-25T18:05:57.585Z,12.58
2022-09-25T18:08:24.939Z,12.54
2022-09-25T18:10:55.367Z,12.51
2022-09-25T18:13:23.160Z,12.49
2022-09-25T18:16:00.056Z,12.45
2022-09-25T18:18:27.771Z,12.42
2022-09-25T18:20:55.223Z,12.43
2022-09-25T18:23:24.537Z,12.43
2022-09-25T18:25:53.575Z,12.42
2022-09-25T18:28:22.481Z,12.39
2022-09-25T18:30:51.618Z,12.37
2022-09-25T18:33:20.954Z,12.36
2022-09-25T18:35:49.998Z,12.36
2022-09-25T18:38:18.911Z,12.34
2022-09-25T18:40:46.876Z,12.34
2022-09-25T18:43:14.737Z,12.34
2022-09-25T18:45:49.615Z,12.34
2022-09-25T18:48:21.420Z,12.33
2022-09-25T18:50:59.769Z,12.33
2022-09-25T18:53:27.965Z,12.35
2022-09-25T18:55:58.024Z,12.37
2022-09-25T18:58:31.968Z,12.39
2022-09-25T19:01:00.426Z,12.36
2022-09-25T19:03:29.603Z,12.35
2022-09-25T19:05:59.927Z,12.35
2022-09-25T19:08:28.930Z,12.34
2022-09-25T19:10:57.670Z,12.36
2022-09-25T19:13:30.637Z,12.37
2022-09-25T19:15:57.971Z,12.36
2022-09-25T19:18:27.204Z,12.30
2022-09-25T19:20:57.325Z,12.31
2022-09-25T19:23:28.406Z,12.30
2022-09-25T19:26:02.940Z,12.28
2022-09-25T19:28:32.875Z,12.30
2022-09-25T19:31:16.408Z,12.28
2022-09-25T19:33:44.126Z,12.24
2022-09-25T19:36:27.953Z,12.23
2022-09-25T19:38:56.666Z,12.24
2022-09-25T19:41:31.396Z,12.24
2022-09-25T19:44:08.116Z,12.24
2022-09-25T19:46:40.020Z,12.20
2022-09-25T19:49:08.130Z,12.19
2022-09-25T19:51:37.742Z,12.20
2022-09-25T19:54:12.234Z,12.21
2022-09-25T19:56:42.452Z,12.21
2022-09-25T19:59:17.798Z,12.21
2022-09-25T20:01:48.181Z,12.19
2022-09-25T20:04:19.014Z,12.15
2022-09-25T20:06:52.198Z,12.15
2022-09-25T20:09:23.290Z,12.15
2022-09-25T20:11:53.164Z,12.14
2022-09-25T20:14:21.530Z,12.16
2022-09-25T20:16:48.646Z,12.15
2022-09-25T20:19:19.195Z,12.16
2022-09-25T20:21:48.164Z,12.18
2022-09-25T20:24:15.974Z,12.19
2022-09-25T20:26:43.286Z,12.15
2022-09-25T20:29:17.082Z,12.18
2022-09-25T20:31:46.758Z,12.17
2022-09-25T20:34:19.874Z,12.17
2022-09-25T20:36:49.295Z,12.17
2022-09-25T20:39:21.148Z,12.13
2022-09-25T20:41:51.652Z,12.12
2022-09-25T20:44:19.309Z,12.08
2022-09-25T20:46:47.440Z,12.08
2022-09-25T20:49:17.109Z,12.06
2022-09-25T20:51:46.544Z,12.07
2022-09-25T20:54:13.752Z,12.06
2022-09-25T20:56:41.022Z,12.07
2022-09-25T20:59:11.354Z,12.07
2022-09-25T21:01:41.140Z,12.07
2022-09-25T21:04:09.252Z,12.03
2022-09-25T21:06:41.647Z,12.04
2022-09-25T21:09:20.620Z,12.08
2022-09-25T21:11:48.602Z,12.07
2022-09-25T21:14:26.598Z,12.06
2022-09-25T21:16:55.867Z,12.07
2022-09-25T21:19:24.751Z,12.04
2022-09-25T21:21:52.126Z,12.04
2022-09-25T21:24:22.523Z,11.99
2022-09-25T21:26:54.441Z,11.89
2022-09-25T21:29:22.919Z,11.93
2022-09-25T21:31:51.080Z,11.85
2022-09-25T21:34:19.672Z,11.92
2022-09-25T21:36:48.430Z,11.91
2022-09-25T21:39:16.872Z,11.90
2022-09-25T21:41:45.312Z,11.88
2022-09-25T21:44:16.167Z,11.89
2022-09-25T21:46:45.007Z,11.86
2022-09-25T21:49:22.247Z,11.86
2022-09-25T21:51:49.967Z,11.86
2022-09-25T21:54:17.483Z,11.86
2022-09-25T21:56:44.786Z,11.86
2022-09-25T21:59:13.161Z,11.85
2022-09-25T22:01:41.475Z,11.85
2022-09-25T22:04:13.616Z,11.85
2022-09-25T22:06:47.420Z,11.83
2022-09-25T22:09:20.162Z,11.81
2022-09-25T22:11:48.895Z,11.79
2022-09-25T22:14:18.080Z,11.82
2022-09-25T22:16:49.273Z,11.82
2022-09-25T22:19:29.412Z,11.79
2022-09-25T22:21:58.738Z,11.79
2022-09-25T22:24:26.923Z,11.77
2022-09-25T22:26:56.239Z,11.77
2022-09-25T22:29:24.696Z,11.76
2022-09-25T22:31:52.820Z,11.74
2022-09-25T22:34:24.651Z,11.78
2022-09-25T22:36:58.921Z,11.77
2022-09-25T22:39:28.673Z,11.75
2022-09-25T22:41:56.419Z,11.75
2022-09-25T22:44:23.777Z,11.73
2022-09-25T22:46:51.224Z,11.73
2022-09-25T22:49:18.750Z,11.70
2022-09-25T22:51:45.879Z,11.70
2022-09-25T22:54:13.895Z,11.67
2022-09-25T22:56:41.891Z,11.74
2022-09-25T22:59:14.403Z,11.73
2022-09-25T23:01:50.367Z,11.69
2022-09-25T23:04:21.733Z,11.71
2022-09-25T23:06:50.074Z,11.69
2022-09-25T23:09:21.058Z,11.66
2022-09-25T23:11:48.869Z,11.67
2022-09-25T23:14:21.672Z,11.60
2022-09-25T23:16:51.390Z,11.61
2022-09-25T23:19:20.117Z,11.57
2022-09-25T23:21:48.405Z,11.47
2022-09-25T23:24:18.426Z,11.42
2022-09-25T23:26:46.549Z,11.33
2022-09-25T23:29:17.046Z,11.23
2022-09-25T23:31:45.917Z,11.19
2022-09-25T23:34:13.866Z,11.16
2022-09-25T23:36:41.413Z,11.03
2022-09-25T23:39:17.067Z,10.95
2022-09-25T23:41:45.175Z,10.94
2022-09-25T23:44:12.565Z,10.91
2022-09-25T23:46:42.404Z,10.90
2022-09-25T23:49:10.485Z,10.87
2022-09-25T23:51:39.131Z,10.82
2022-09-25T23:54:06.656Z,10.79
2022-09-25T23:56:35.727Z,10.72
2022-09-25T23:59:04.375Z,10.69
